Portada
METAR-TAF:

METAR-TAF

Aeropuertos :

Humberside, Inglaterra

latitud: 53-35N, longitud: 000-21W, altitud: 31 m

Observación

El informe se hizo hace 16 minutos, a las 19:50 UTC
Viento 12 kt del noreste
Temperatura 7°C
Humedad 81%
Presión 1026 hPa
Visibilidad 10 km o más
sin nubes por debajo de 1500 m y sin presencia de cumulonimbus.

METAR: EGNJ 231950Z 05012KT CAVOK 07/04 Q1026

Hora: 20:06 (20:06 UTC)

Pronóstico

El informe se hizo hace 26 minutos, a las 19:40 UTC
Pronóstico válido del 23 a las 19 UTC al 24 a las 03 UTC
Viento 15 kt del este-noreste
Visibilidad 10 km o más
Escasas nubes a una altura de 4500 ft
Temporalmente
del 23 a las 19 UTC al 23 a las 24 UTC
Visibilidad: 8000 m
Probabilidad 30% :
Temporalmente
del 24 a las 00 UTC al 24 a las 03 UTC
Visibilidad: 4000 m
neblina

TAF: EGNJ 231940Z 2319/2403 06015KT 9999 FEW045 TEMPO 2319/2324 8000 PROB30 TEMPO 2400/2403 4000 BR

Observaciones y pronósticos meteorológicos de más de 4000 aeropuertos (mensajes METAR y TAF).

Los puntos amarillos y rojos representan las estaciones disponibles.

Ponga el ratón en el punto deseado para ver el nombre de la estación.

Haga clic para ver las observaciones y los pronósticos meteorológicos.

Para cambiar el mapa : haga clic en los botones verdes con una cruz de color negro para hacer un zoom, en el botón verde con un guión para alejar o en las flechas verdes para mapas adyacentes.


METAR-TAF: